sensor_id;sensor_type;location;lat;lon;timestamp;temperature;humidity
63966;DHT22;50151;52.030;5.350;2022-09-20T08:48:48;12.40;95.90
63966;DHT22;50151;52.030;5.350;2022-09-20T08:51:15;12.60;96.20
63966;DHT22;50151;52.030;5.350;2022-09-20T08:53:52;12.80;94.70
63966;DHT22;50151;52.030;5.350;2022-09-20T08:56:20;12.90;93.30
63966;DHT22;50151;52.030;5.350;2022-09-20T08:58:48;13.10;94.10
63966;DHT22;50151;52.030;5.350;2022-09-20T09:01:22;13.20;93.60
63966;DHT22;50151;52.030;5.350;2022-09-20T09:03:51;13.20;92.00
63966;DHT22;50151;52.030;5.350;2022-09-20T09:06:19;13.20;92.40
63966;DHT22;50151;52.030;5.350;2022-09-20T09:08:48;13.20;92.90
63966;DHT22;50151;52.030;5.350;2022-09-20T09:11:20;13.20;92.30
63966;DHT22;50151;52.030;5.350;2022-09-20T09:13:53;13.10;92.20
63966;DHT22;50151;52.030;5.350;2022-09-20T09:16:23;13.20;91.90
63966;DHT22;50151;52.030;5.350;2022-09-20T09:19:42;13.30;92.20
63966;DHT22;50151;52.030;5.350;2022-09-20T09:22:10;13.60;92.30
63966;DHT22;50151;52.030;5.350;2022-09-20T09:24:37;13.70;92.00
63966;DHT22;50151;52.030;5.350;2022-09-20T09:27:24;13.80;90.10
63966;DHT22;50151;52.030;5.350;2022-09-20T09:29:53;13.80;88.30
63966;DHT22;50151;52.030;5.350;2022-09-20T09:32:31;13.80;89.80
63966;DHT22;50151;52.030;5.350;2022-09-20T09:35:27;13.80;87.90
63966;DHT22;50151;52.030;5.350;2022-09-20T09:37:59;13.90;90.00
63966;DHT22;50151;52.030;5.350;2022-09-20T09:40:30;14.00;89.60
63966;DHT22;50151;52.030;5.350;2022-09-20T09:42:59;14.00;87.90
63966;DHT22;50151;52.030;5.350;2022-09-20T09:45:30;14.00;88.30
63966;DHT22;50151;52.030;5.350;2022-09-20T09:47:59;14.00;83.50
63966;DHT22;50151;52.030;5.350;2022-09-20T09:50:30;14.00;85.80
63966;DHT22;50151;52.030;5.350;2022-09-20T09:53:04;14.10;85.80
63966;DHT22;50151;52.030;5.350;2022-09-20T09:55:51;14.10;83.70
63966;DHT22;50151;52.030;5.350;2022-09-20T09:58:44;14.10;80.60
63966;DHT22;50151;52.030;5.350;2022-09-20T10:04:23;14.20;82.20
63966;DHT22;50151;52.030;5.350;2022-09-20T10:07:08;14.30;78.20
63966;DHT22;50151;52.030;5.350;2022-09-20T10:18:18;14.00;80.90
63966;DHT22;50151;52.030;5.350;2022-09-20T10:21:05;14.00;81.70
63966;DHT22;50151;52.030;5.350;2022-09-20T10:24:02;14.00;83.40
63966;DHT22;50151;52.030;5.350;2022-09-20T10:26:45;14.20;85.20
63966;DHT22;50151;52.030;5.350;2022-09-20T10:32:23;14.20;86.40
63966;DHT22;50151;52.030;5.350;2022-09-20T10:35:10;14.20;85.30
63966;DHT22;50151;52.030;5.350;2022-09-20T10:46:06;14.40;79.00
63966;DHT22;50151;52.030;5.350;2022-09-20T10:49:09;14.40;77.80
63966;DHT22;50151;52.030;5.350;2022-09-20T10:51:52;14.50;75.30
63966;DHT22;50151;52.030;5.350;2022-09-20T11:03:12;15.00;73.40
63966;DHT22;50151;52.030;5.350;2022-09-20T11:08:27;15.40;73.30
63966;DHT22;50151;52.030;5.350;2022-09-20T11:11:07;15.60;72.20
63966;DHT22;50151;52.030;5.350;2022-09-20T11:14:12;15.70;72.20
63966;DHT22;50151;52.030;5.350;2022-09-20T11:16:56;15.70;70.00
63966;DHT22;50151;52.030;5.350;2022-09-20T11:22:10;15.70;70.70
63966;DHT22;50151;52.030;5.350;2022-09-20T11:24:57;15.90;69.60
63966;DHT22;50151;52.030;5.350;2022-09-20T11:27:43;15.80;67.90
63966;DHT22;50151;52.030;5.350;2022-09-20T11:30:16;15.90;69.40
63966;DHT22;50151;52.030;5.350;2022-09-20T11:33:07;15.90;68.10
63966;DHT22;50151;52.030;5.350;2022-09-20T11:36:03;16.10;68.50
63966;DHT22;50151;52.030;5.350;2022-09-20T11:41:31;16.00;69.00
63966;DHT22;50151;52.030;5.350;2022-09-20T11:44:03;16.30;70.80
63966;DHT22;50151;52.030;5.350;2022-09-20T11:46:37;16.30;68.20
63966;DHT22;50151;52.030;5.350;2022-09-20T11:49:42;16.30;67.90
63966;DHT22;50151;52.030;5.350;2022-09-20T11:52:40;16.40;67.90
63966;DHT22;50151;52.030;5.350;2022-09-20T11:55:19;16.30;66.20
63966;DHT22;50151;52.030;5.350;2022-09-20T11:58:00;16.50;65.70
63966;DHT22;50151;52.030;5.350;2022-09-20T12:00:29;16.40;64.50
63966;DHT22;50151;52.030;5.350;2022-09-20T12:02:58;16.40;66.10
63966;DHT22;50151;52.030;5.350;2022-09-20T12:05:38;16.60;65.50
63966;DHT22;50151;52.030;5.350;2022-09-20T12:08:19;16.20;64.60
63966;DHT22;50151;52.030;5.350;2022-09-20T12:11:00;16.40;65.70
63966;DHT22;50151;52.030;5.350;2022-09-20T12:13:32;16.40;65.40
63966;DHT22;50151;52.030;5.350;2022-09-20T12:16:15;16.50;64.80
63966;DHT22;50151;52.030;5.350;2022-09-20T12:21:20;16.70;65.30
63966;DHT22;50151;52.030;5.350;2022-09-20T12:28:57;16.60;63.20
63966;DHT22;50151;52.030;5.350;2022-09-20T12:36:29;17.20;62.70
63966;DHT22;50151;52.030;5.350;2022-09-20T12:41:54;17.90;59.50
63966;DHT22;50151;52.030;5.350;2022-09-20T12:44:26;18.90;58.00
63966;DHT22;50151;52.030;5.350;2022-09-20T12:55:49;18.20;58.20
63966;DHT22;50151;52.030;5.350;2022-09-20T12:58:22;17.80;57.20
63966;DHT22;50151;52.030;5.350;2022-09-20T13:03:42;17.50;60.00
63966;DHT22;50151;52.030;5.350;2022-09-20T13:11:42;17.70;60.80
63966;DHT22;50151;52.030;5.350;2022-09-20T13:14:30;17.70;62.20
63966;DHT22;50151;52.030;5.350;2022-09-20T13:19:46;17.50;61.10
63966;DHT22;50151;52.030;5.350;2022-09-20T13:22:27;17.40;61.10
63966;DHT22;50151;52.030;5.350;2022-09-20T13:24:59;17.20;60.30
63966;DHT22;50151;52.030;5.350;2022-09-20T13:27:41;17.10;61.10
63966;DHT22;50151;52.030;5.350;2022-09-20T13:32:40;17.00;63.10
63966;DHT22;50151;52.030;5.350;2022-09-20T13:35:25;16.90;62.80
63966;DHT22;50151;52.030;5.350;2022-09-20T13:38:08;16.80;63.90
63966;DHT22;50151;52.030;5.350;2022-09-20T13:40:40;16.80;64.40
63966;DHT22;50151;52.030;5.350;2022-09-20T13:46:16;17.00;65.00
63966;DHT22;50151;52.030;5.350;2022-09-20T13:51:34;17.10;63.90
63966;DHT22;50151;52.030;5.350;2022-09-20T13:54:24;17.50;64.50
63966;DHT22;50151;52.030;5.350;2022-09-20T13:56:58;17.70;62.30
63966;DHT22;50151;52.030;5.350;2022-09-20T13:59:38;17.60;61.10
63966;DHT22;50151;52.030;5.350;2022-09-20T14:02:28;17.60;61.60
63966;DHT22;50151;52.030;5.350;2022-09-20T14:04:59;17.60;60.80
63966;DHT22;50151;52.030;5.350;2022-09-20T14:07:28;17.70;64.00
63966;DHT22;50151;52.030;5.350;2022-09-20T14:09:55;17.70;62.30
63966;DHT22;50151;52.030;5.350;2022-09-20T14:12:23;17.70;63.60
63966;DHT22;50151;52.030;5.350;2022-09-20T14:14:50;17.60;63.30
63966;DHT22;50151;52.030;5.350;2022-09-20T14:17:19;17.50;65.40
63966;DHT22;50151;52.030;5.350;2022-09-20T14:19:49;17.40;64.80
63966;DHT22;50151;52.030;5.350;2022-09-20T14:22:26;17.50;65.80
63966;DHT22;50151;52.030;5.350;2022-09-20T14:25:20;17.60;64.10
63966;DHT22;50151;52.030;5.350;2022-09-20T14:27:47;17.60;62.80
63966;DHT22;50151;52.030;5.350;2022-09-20T14:30:29;17.60;62.60
63966;DHT22;50151;52.030;5.350;2022-09-20T14:32:57;17.40;62.90
63966;DHT22;50151;52.030;5.350;2022-09-20T14:35:24;17.50;64.20
63966;DHT22;50151;52.030;5.350;2022-09-20T14:38:04;17.30;62.80
63966;DHT22;50151;52.030;5.350;2022-09-20T14:40:43;17.50;64.30
63966;DHT22;50151;52.030;5.350;2022-09-20T14:43:31;17.50;64.80
63966;DHT22;50151;52.030;5.350;2022-09-20T14:46:04;17.60;63.90
63966;DHT22;50151;52.030;5.350;2022-09-20T14:48:38;17.50;63.00
63966;DHT22;50151;52.030;5.350;2022-09-20T14:53:36;17.60;63.90
63966;DHT22;50151;52.030;5.350;2022-09-20T14:58:30;17.40;64.20
63966;DHT22;50151;52.030;5.350;2022-09-20T15:01:03;17.40;63.70
63966;DHT22;50151;52.030;5.350;2022-09-20T15:03:40;17.50;63.40
63966;DHT22;50151;52.030;5.350;2022-09-20T15:06:11;18.00;63.20
63966;DHT22;50151;52.030;5.350;2022-09-20T15:08:39;18.40;62.90
63966;DHT22;50151;52.030;5.350;2022-09-20T15:11:16;18.50;61.10
63966;DHT22;50151;52.030;5.350;2022-09-20T15:13:43;18.00;60.10
63966;DHT22;50151;52.030;5.350;2022-09-20T15:16:13;17.80;59.70
63966;DHT22;50151;52.030;5.350;2022-09-20T15:18:43;17.50;61.60
63966;DHT22;50151;52.030;5.350;2022-09-20T15:21:10;17.40;63.20
63966;DHT22;50151;52.030;5.350;2022-09-20T15:23:37;17.50;62.50
63966;DHT22;50151;52.030;5.350;2022-09-20T15:26:05;17.40;63.90
63966;DHT22;50151;52.030;5.350;2022-09-20T15:28:33;17.50;63.60
63966;DHT22;50151;52.030;5.350;2022-09-20T15:31:00;17.40;62.50
63966;DHT22;50151;52.030;5.350;2022-09-20T15:33:29;17.40;61.80
63966;DHT22;50151;52.030;5.350;2022-09-20T15:35:57;17.30;61.50
63966;DHT22;50151;52.030;5.350;2022-09-20T15:38:24;17.30;61.30
63966;DHT22;50151;52.030;5.350;2022-09-20T15:40:52;17.30;61.40
63966;DHT22;50151;52.030;5.350;2022-09-20T15:43:23;17.30;61.80
63966;DHT22;50151;52.030;5.350;2022-09-20T15:45:54;17.30;62.40
63966;DHT22;50151;52.030;5.350;2022-09-20T15:48:24;17.10;62.60
63966;DHT22;50151;52.030;5.350;2022-09-20T15:53:37;17.00;63.40
63966;DHT22;50151;52.030;5.350;2022-09-20T15:56:18;17.10;63.80
63966;DHT22;50151;52.030;5.350;2022-09-20T15:58:54;17.00;61.70
63966;DHT22;50151;52.030;5.350;2022-09-20T16:01:29;17.00;63.40
63966;DHT22;50151;52.030;5.350;2022-09-20T16:03:58;17.20;63.70
63966;DHT22;50151;52.030;5.350;2022-09-20T16:06:25;17.00;62.80
63966;DHT22;50151;52.030;5.350;2022-09-20T16:08:52;17.10;63.10
63966;DHT22;50151;52.030;5.350;2022-09-20T16:11:20;17.20;63.40
63966;DHT22;50151;52.030;5.350;2022-09-20T16:13:52;17.00;63.30
63966;DHT22;50151;52.030;5.350;2022-09-20T16:16:20;16.90;63.40
63966;DHT22;50151;52.030;5.350;2022-09-20T16:18:47;16.80;63.90
63966;DHT22;50151;52.030;5.350;2022-09-20T16:21:32;16.80;64.10
63966;DHT22;50151;52.030;5.350;2022-09-20T16:23:59;16.80;65.30
63966;DHT22;50151;52.030;5.350;2022-09-20T16:26:27;16.80;65.00
63966;DHT22;50151;52.030;5.350;2022-09-20T16:28:54;16.70;64.90
63966;DHT22;50151;52.030;5.350;2022-09-20T16:31:38;16.70;64.80
63966;DHT22;50151;52.030;5.350;2022-09-20T16:36:50;16.60;65.40
63966;DHT22;50151;52.030;5.350;2022-09-20T16:39:20;16.60;65.90
63966;DHT22;50151;52.030;5.350;2022-09-20T16:42:04;16.70;66.00
63966;DHT22;50151;52.030;5.350;2022-09-20T16:44:35;16.60;67.20
63966;DHT22;50151;52.030;5.350;2022-09-20T16:47:03;16.50;68.40
63966;DHT22;50151;52.030;5.350;2022-09-20T16:49:33;16.40;67.80
63966;DHT22;50151;52.030;5.350;2022-09-20T16:52:00;16.30;69.00
63966;DHT22;50151;52.030;5.350;2022-09-20T16:54:27;16.30;68.80
63966;DHT22;50151;52.030;5.350;2022-09-20T16:56:57;16.20;69.60
63966;DHT22;50151;52.030;5.350;2022-09-20T16:59:24;16.10;70.20
63966;DHT22;50151;52.030;5.350;2022-09-20T17:01:51;16.00;71.50
63966;DHT22;50151;52.030;5.350;2022-09-20T17:04:18;16.00;70.60
63966;DHT22;50151;52.030;5.350;2022-09-20T17:06:47;16.00;72.10
63966;DHT22;50151;52.030;5.350;2022-09-20T17:09:15;15.90;72.30
63966;DHT22;50151;52.030;5.350;2022-09-20T17:11:44;15.80;73.40
63966;DHT22;50151;52.030;5.350;2022-09-20T17:14:13;15.60;75.60
63966;DHT22;50151;52.030;5.350;2022-09-20T17:16:42;15.60;74.60
63966;DHT22;50151;52.030;5.350;2022-09-20T17:19:14;15.50;76.00
63966;DHT22;50151;52.030;5.350;2022-09-20T17:21:43;16.10;76.70
63966;DHT22;50151;52.030;5.350;2022-09-20T17:24:11;15.70;76.10
63966;DHT22;50151;52.030;5.350;2022-09-20T17:26:41;15.50;77.30
63966;DHT22;50151;52.030;5.350;2022-09-20T17:29:12;15.20;77.90
63966;DHT22;50151;52.030;5.350;2022-09-20T17:31:43;15.20;79.00
63966;DHT22;50151;52.030;5.350;2022-09-20T17:34:17;15.00;79.30
63966;DHT22;50151;52.030;5.350;2022-09-20T17:36:47;14.90;79.40
63966;DHT22;50151;52.030;5.350;2022-09-20T17:39:15;14.80;79.40
63966;DHT22;50151;52.030;5.350;2022-09-20T17:41:43;14.70;79.50
63966;DHT22;50151;52.030;5.350;2022-09-20T17:44:11;14.70;80.20
63966;DHT22;50151;52.030;5.350;2022-09-20T17:46:39;14.60;80.60
63966;DHT22;50151;52.030;5.350;2022-09-20T17:49:09;14.40;80.90
63966;DHT22;50151;52.030;5.350;2022-09-20T17:51:38;14.40;81.30
63966;DHT22;50151;52.030;5.350;2022-09-20T17:54:06;14.30;81.50
63966;DHT22;50151;52.030;5.350;2022-09-20T17:56:34;14.20;81.70
63966;DHT22;50151;52.030;5.350;2022-09-20T17:59:02;14.20;82.00
63966;DHT22;50151;52.030;5.350;2022-09-20T18:01:31;14.10;82.10
63966;DHT22;50151;52.030;5.350;2022-09-20T18:03:59;14.10;82.30
63966;DHT22;50151;52.030;5.350;2022-09-20T18:06:31;14.00;82.70
63966;DHT22;50151;52.030;5.350;2022-09-20T18:09:01;13.90;83.00
63966;DHT22;50151;52.030;5.350;2022-09-20T18:11:33;13.90;83.30
63966;DHT22;50151;52.030;5.350;2022-09-20T18:14:04;13.80;83.30
63966;DHT22;50151;52.030;5.350;2022-09-20T18:16:31;13.70;83.60
63966;DHT22;50151;52.030;5.350;2022-09-20T18:18:59;13.60;84.20
63966;DHT22;50151;52.030;5.350;2022-09-20T18:21:29;13.50;84.80
63966;DHT22;50151;52.030;5.350;2022-09-20T18:23:57;13.50;85.20
63966;DHT22;50151;52.030;5.350;2022-09-20T18:26:26;13.40;85.30
63966;DHT22;50151;52.030;5.350;2022-09-20T18:29:03;13.40;86.10
63966;DHT22;50151;52.030;5.350;2022-09-20T18:31:34;13.30;85.90
63966;DHT22;50151;52.030;5.350;2022-09-20T18:34:05;13.30;86.10
63966;DHT22;50151;52.030;5.350;2022-09-20T18:36:35;13.30;86.50
63966;DHT22;50151;52.030;5.350;2022-09-20T18:39:02;13.30;86.60
63966;DHT22;50151;52.030;5.350;2022-09-20T18:41:31;13.20;86.90
63966;DHT22;50151;52.030;5.350;2022-09-20T18:43:59;13.10;87.10
63966;DHT22;50151;52.030;5.350;2022-09-20T18:46:27;13.00;87.60
63966;DHT22;50151;52.030;5.350;2022-09-20T18:48:57;13.00;87.30
63966;DHT22;50151;52.030;5.350;2022-09-20T18:51:26;12.80;87.60
63966;DHT22;50151;52.030;5.350;2022-09-20T18:53:56;12.80;88.10
63966;DHT22;50151;52.030;5.350;2022-09-20T18:56:30;12.80;88.30
63966;DHT22;50151;52.030;5.350;2022-09-20T18:59:01;12.70;88.20
63966;DHT22;50151;52.030;5.350;2022-09-20T19:01:45;12.70;88.10
63966;DHT22;50151;52.030;5.350;2022-09-20T19:13:32;12.50;88.40
63966;DHT22;50151;52.030;5.350;2022-09-20T19:24:45;12.40;89.60
63966;DHT22;50151;52.030;5.350;2022-09-20T19:27:15;12.30;90.20
63966;DHT22;50151;52.030;5.350;2022-09-20T19:29:42;12.30;90.20
63966;DHT22;50151;52.030;5.350;2022-09-20T19:32:15;12.30;90.20
63966;DHT22;50151;52.030;5.350;2022-09-20T19:34:49;12.20;90.40
63966;DHT22;50151;52.030;5.350;2022-09-20T19:40:09;12.20;90.50
63966;DHT22;50151;52.030;5.350;2022-09-20T19:42:52;12.20;90.60
63966;DHT22;50151;52.030;5.350;2022-09-20T19:45:45;12.20;90.80
63966;DHT22;50151;52.030;5.350;2022-09-20T19:50:52;12.20;90.80
63966;DHT22;50151;52.030;5.350;2022-09-20T19:53:21;12.20;90.90
63966;DHT22;50151;52.030;5.350;2022-09-20T19:55:53;12.20;91.00
63966;DHT22;50151;52.030;5.350;2022-09-20T19:58:21;12.20;91.00
63966;DHT22;50151;52.030;5.350;2022-09-20T20:00:49;12.20;91.20
63966;DHT22;50151;52.030;5.350;2022-09-20T20:03:19;12.20;91.40
63966;DHT22;50151;52.030;5.350;2022-09-20T20:06:00;12.20;91.30
63966;DHT22;50151;52.030;5.350;2022-09-20T20:11:43;12.20;91.50
63966;DHT22;50151;52.030;5.350;2022-09-20T20:14:32;12.20;92.00
63966;DHT22;50151;52.030;5.350;2022-09-20T20:17:24;12.20;92.20
63966;DHT22;50151;52.030;5.350;2022-09-20T20:25:27;12.20;92.40
63966;DHT22;50151;52.030;5.350;2022-09-20T20:27:58;12.20;92.60
63966;DHT22;50151;52.030;5.350;2022-09-20T20:30:25;12.20;92.60
63966;DHT22;50151;52.030;5.350;2022-09-20T20:32:55;12.10;92.70
63966;DHT22;50151;52.030;5.350;2022-09-20T20:35:26;12.10;92.90
63966;DHT22;50151;52.030;5.350;2022-09-20T20:37:52;12.10;93.00
63966;DHT22;50151;52.030;5.350;2022-09-20T20:40:19;12.10;92.90
63966;DHT22;50151;52.030;5.350;2022-09-20T20:42:46;12.10;93.10
63966;DHT22;50151;52.030;5.350;2022-09-20T20:45:14;12.10;93.20
63966;DHT22;50151;52.030;5.350;2022-09-20T20:47:40;12.10;93.20
63966;DHT22;50151;52.030;5.350;2022-09-20T20:50:08;12.10;93.00
63966;DHT22;50151;52.030;5.350;2022-09-20T20:52:37;12.10;93.20
63966;DHT22;50151;52.030;5.350;2022-09-20T20:55:04;12.10;93.20
63966;DHT22;50151;52.030;5.350;2022-09-20T20:57:31;12.00;93.20
63966;DHT22;50151;52.030;5.350;2022-09-20T20:59:59;12.00;93.20
63966;DHT22;50151;52.030;5.350;2022-09-20T21:02:26;12.00;93.40
63966;DHT22;50151;52.030;5.350;2022-09-20T21:04:53;11.90;93.50
63966;DHT22;50151;52.030;5.350;2022-09-20T21:07:19;12.00;93.90
63966;DHT22;50151;52.030;5.350;2022-09-20T21:09:46;12.00;94.10
63966;DHT22;50151;52.030;5.350;2022-09-20T21:12:13;11.90;94.10
63966;DHT22;50151;52.030;5.350;2022-09-20T21:14:40;12.00;94.20
63966;DHT22;50151;52.030;5.350;2022-09-20T21:17:06;12.00;94.10
63966;DHT22;50151;52.030;5.350;2022-09-20T21:19:34;12.00;93.80
63966;DHT22;50151;52.030;5.350;2022-09-20T21:22:00;12.00;94.00
63966;DHT22;50151;52.030;5.350;2022-09-20T21:24:27;12.00;94.10
63966;DHT22;50151;52.030;5.350;2022-09-20T21:26:53;12.00;94.30
63966;DHT22;50151;52.030;5.350;2022-09-20T21:29:20;11.90;94.30
63966;DHT22;50151;52.030;5.350;2022-09-20T21:31:47;11.90;94.30
63966;DHT22;50151;52.030;5.350;2022-09-20T21:34:14;11.90;94.20
63966;DHT22;50151;52.030;5.350;2022-09-20T21:36:42;12.00;94.90
63966;DHT22;50151;52.030;5.350;2022-09-20T21:39:09;11.90;94.20
63966;DHT22;50151;52.030;5.350;2022-09-20T21:41:37;11.90;94.30
63966;DHT22;50151;52.030;5.350;2022-09-20T21:44:05;11.90;94.40
63966;DHT22;50151;52.030;5.350;2022-09-20T21:46:37;11.80;94.40
63966;DHT22;50151;52.030;5.350;2022-09-20T21:49:08;11.80;94.70
63966;DHT22;50151;52.030;5.350;2022-09-20T21:51:36;11.80;94.80
63966;DHT22;50151;52.030;5.350;2022-09-20T21:54:04;11.80;94.80
63966;DHT22;50151;52.030;5.350;2022-09-20T21:56:33;11.80;95.00
63966;DHT22;50151;52.030;5.350;2022-09-20T21:59:00;11.80;94.80
63966;DHT22;50151;52.030;5.350;2022-09-20T22:01:31;11.80;94.90
63966;DHT22;50151;52.030;5.350;2022-09-20T22:04:03;11.80;94.90
63966;DHT22;50151;52.030;5.350;2022-09-20T22:06:36;11.80;94.90
63966;DHT22;50151;52.030;5.350;2022-09-20T22:09:05;11.80;94.70
63966;DHT22;50151;52.030;5.350;2022-09-20T22:11:35;11.80;95.00
63966;DHT22;50151;52.030;5.350;2022-09-20T22:14:05;11.80;94.90
63966;DHT22;50151;52.030;5.350;2022-09-20T22:16:34;11.70;94.90
